WetterOnline ( https://www.wetteronline.de )

Wetter aktuell Bodenmais

Aktuelles Wetter: Großer Arber (1446m)

6-stündlich | Neueste Meldungen
Ortszeit Temperatur Wetter
So, 14.04. 20:00 11.0° C bedeckt
So, 14.04. 14:00 13.9° C leicht bewölkt
So, 14.04. 8:00 9.5° C bewölkt
So, 14.04. 2:00 11.1° C wolkig
Sa, 13.04. 20:00 10.4° C wolkig
Sa, 13.04. 14:00 13.1° C leicht bewölkt
Sa, 13.04. 8:00 7.4° C bedeckt
Sa, 13.04. 2:00 7.7° C wolkenlos
Ortszeit Temperatur Wetter
So, 14.04. 23:10 10.2° C bedeckt
So, 14.04. 23:00 10.6° C bewölkt
So, 14.04. 22:50 10.6° C bewölkt
So, 14.04. 22:40 10.5° C bedeckt
So, 14.04. 22:30 10.5° C wolkig
So, 14.04. 22:20 10.5° C wolkig
So, 14.04. 22:00 10.6° C bewölkt
So, 14.04. 21:30 10.6° C bewölkt
So, 14.04. 21:00 10.6° C bedeckt
So, 14.04. 20:30 10.6° C bedeckt
Ortszeit Relative Feuchte Sichtweite
So, 14.04. 20:00 71% >70 km
So, 14.04. 14:00 66% 40 km
So, 14.04. 8:00 77% 50 km
So, 14.04. 2:00 67% 30 km
Sa, 13.04. 20:00 73% 45 km
Sa, 13.04. 14:00 64% >70 km
Sa, 13.04. 8:00 92% 24 km
Sa, 13.04. 2:00 73% 60 km
Ortszeit Relative Feuchte Sichtweite
So, 14.04. 23:10 73% -
So, 14.04. 23:00 71% >70 km
So, 14.04. 22:50 71% -
So, 14.04. 22:40 72% -
So, 14.04. 22:30 71% 60 km
So, 14.04. 22:20 71% -
So, 14.04. 22:00 71% >70 km
So, 14.04. 21:30 70% >70 km
So, 14.04. 21:00 72% >70 km
So, 14.04. 20:30 73% 60 km
Ortszeit Niederschlagsmenge Niederschlagsart
So, 14.04. 20:00 0.1 l/m2 in 12 Std. Niederschlag
So, 14.04. 14:00 0.0 l/m2 in 6 Std. -
So, 14.04. 8:00 0.0 l/m2 in 12 Std. -
So, 14.04. 2:00 0.0 l/m2 in 6 Std. -
Sa, 13.04. 20:00 0.1 l/m2 in 12 Std. Niederschlag
Sa, 13.04. 14:00 0.0 l/m2 in 6 Std. -
Sa, 13.04. 8:00 0.0 l/m2 in 12 Std. -
Sa, 13.04. 2:00 0.0 l/m2 in 6 Std. -
Ortszeit Niederschlagsmenge Niederschlagsart
So, 14.04. 23:10 keine Meldung -
So, 14.04. 23:00 0.0 l/m2 in 1 Std. -
So, 14.04. 22:50 keine Meldung -
So, 14.04. 22:40 keine Meldung -
So, 14.04. 22:30 0.0 l/m2 in 30 Min -
So, 14.04. 22:20 keine Meldung -
So, 14.04. 22:00 0.0 l/m2 in 1 Std. -
So, 14.04. 21:30 0.0 l/m2 in 30 Min -
So, 14.04. 21:00 0.0 l/m2 in 1 Std. -
So, 14.04. 20:30 0.0 l/m2 in 30 Min -
Ortszeit Stärke Spitze Richtung
km/h Bft. km/h Grad Sektor
So, 14.04. 20:00 32 5 54 260° W
So, 14.04. 14:00 30 5 63 240° SW
So, 14.04. 8:00 47 6 65 260° W
So, 14.04. 2:00 41 6 50 220° SW
Sa, 13.04. 20:00 31 5 37 240° SW
Sa, 13.04. 14:00 22 4 43 220° SW
Sa, 13.04. 8:00 29 5 47 250° W
Sa, 13.04. 2:00 30 5 41 250° W
Ortszeit Stärke Spitze Richtung
km/h Bft. km/h Grad Sektor
So, 14.04. 23:10 32 5 - 250° W
So, 14.04. 23:00 33 5 46 260° W
So, 14.04. 22:50 33 5 - 260° W
So, 14.04. 22:40 33 5 - 260° W
So, 14.04. 22:30 35 5 46 260° W
So, 14.04. 22:20 35 5 - 260° W
So, 14.04. 22:00 39 6 46 260° W
So, 14.04. 21:30 33 5 43 260° W
So, 14.04. 21:00 32 5 43 260° W
So, 14.04. 20:30 31 5 39 260° W
Ortszeit Untergrenze Bedeckung Gattung
total tief tief mittel hoch
So, 14.04. 20:00 5700 m 8/8 8/8 - - -
So, 14.04. 14:00 570 m 8/8 1/8 - - -
So, 14.04. 8:00 6900 m 8/8 7/8 - - -
So, 14.04. 2:00 7800 m 7/8 0/8 - - -
Sa, 13.04. 20:00 5700 m 8/8 3/8 - - -
Sa, 13.04. 14:00 9000 m 4/8 0/8 - - -
Sa, 13.04. 8:00 4800 m 8/8 8/8 - - -
Sa, 13.04. 2:00 - 0/8 0/8 - - -
Ortszeit Bedeckungsgrad in Achtel und Wolkenuntergrenze
So, 14.04. 23:10 8
So, 14.04. 23:00 4(1320m) 8(7500m) 8(9000m)
So, 14.04. 22:50 4(1320m) 8(7500m) 8(9000m)
So, 14.04. 22:40 8
So, 14.04. 22:30 2(6300m) 7(8100m) 8(9000m)
So, 14.04. 22:20 2(6300m) 7(8100m) 8(9000m)
So, 14.04. 22:00 6(6300m) 8(7800m) 8(8700m)
So, 14.04. 21:30 4(6000m) 8(7500m) 8(9000m)
So, 14.04. 21:00 8(5700m) 8(7800m) 8(9000m)
So, 14.04. 20:30 8(5700m)
Ortszeit Stationsdruck (hPa) Tendenz (hPa in 3 Std.)
So, 14.04. 20:00 858 - 1,5
So, 14.04. 14:00 860 - 0,3
So, 14.04. 8:00 860 - 0,7
So, 14.04. 2:00 862 - 1,4
Sa, 13.04. 20:00 864 - 1,1
Sa, 13.04. 14:00 867 - 0,7
Sa, 13.04. 8:00 866 + 0,1
Sa, 13.04. 2:00 867 - 0,7
Ortszeit Stationsdruck (hPa) Tendenz (hPa in 3 Std.)
So, 14.04. 23:10 857 keine Meldung
So, 14.04. 23:00 857 - 1,1
So, 14.04. 22:50 857 keine Meldung
So, 14.04. 22:40 857 keine Meldung
So, 14.04. 22:30 857 - 1,0
So, 14.04. 22:20 857 keine Meldung
So, 14.04. 22:00 857 - 1,1
So, 14.04. 21:30 858 - 1,1
So, 14.04. 21:00 858 - 1,0
So, 14.04. 20:30 858 - 1,2
Ortszeit Schneehöhe (cm)
So, 14.04. 20:00 -
So, 14.04. 14:00 -
So, 14.04. 8:00 -
So, 14.04. 2:00 -
Sa, 13.04. 20:00 -
Sa, 13.04. 14:00 -
Sa, 13.04. 8:00 -
Sa, 13.04. 2:00 -
Ortszeit Schneehöhe (cm)
So, 14.04. 23:10 -
So, 14.04. 23:00 -
So, 14.04. 22:50 -
So, 14.04. 22:40 -
So, 14.04. 22:30 -
So, 14.04. 22:20 -
So, 14.04. 22:00 -
So, 14.04. 21:30 -
So, 14.04. 21:00 -
So, 14.04. 20:30 -
Link zu dieser Seite / Seite empfehlen

Das Wetter in ...